Time;durP1;ratioP1;P1;durP2;ratioP2;P2;SDS_P1;SDS_P2;PMS_P1;PMS_P2;Temp;Humidity;BMP_temperature;BMP_pressure;BME280_temperature;BME280_humidity;BME280_pressure;Samples;Min_cycle;Max_cycle;Signal;HPM_P1;HPM_P2
2022/04/10 05:59:23;;;;;;;26.60;15.90;;;;;;;5.07;86.23;100351.44;104172;1289;599427;-64
2022/04/10 06:01:54;;;;;;;23.80;14.20;;;;;;;5.12;86.49;100354.13;106493;1260;61536;-65
2022/04/10 06:04:25;;;;;;;18.40;12.30;;;;;;;5.18;86.60;100350.31;106952;1257;61314;-65
2022/04/10 06:06:54;;;;;;;19.10;12.90;;;;;;;5.27;86.79;100354.10;107040;1257;69922;-65
2022/04/10 06:09:31;;;;;;;15.90;12.20;;;;;;;5.35;86.67;100358.34;106848;1257;70725;-68
2022/04/10 06:12:00;;;;;;;17.70;12.10;;;;;;;5.42;86.50;100353.48;106690;1253;377302;-68
2022/04/10 06:14:33;;;;;;;;;;;;;;;5.45;85.72;100358.47;107069;1253;71175;-69
2022/04/10 06:17:04;;;;;;;16.00;11.10;;;;;;;5.46;85.39;100352.05;107251;1250;61259;-67
2022/04/10 06:19:34;;;;;;;11.90;10.10;;;;;;;5.57;85.47;100351.56;106930;1253;59539;-69
2022/04/10 06:22:07;;;;;;;15.30;11.10;;;;;;;5.60;85.27;100355.05;107103;1251;69998;-66
2022/04/10 06:24:36;;;;;;;12.60;9.80;;;;;;;5.56;84.35;100352.15;107124;1250;72199;-69
2022/04/10 06:27:05;;;;;;;14.10;9.60;;;;;;;5.63;84.70;100356.95;107046;1251;71976;-71
2022/04/10 06:29:34;;;;;;;11.60;9.40;;;;;;;5.71;84.23;100360.45;107081;1250;72660;-71
2022/04/10 06:32:04;;;;;;;11.40;8.70;;;;;;;5.77;84.74;100366.13;107100;1250;62007;-68
2022/04/10 06:34:40;;;;;;;11.90;9.80;;;;;;;5.82;84.24;100362.36;107101;1250;58965;-69
2022/04/10 06:37:10;;;;;;;12.80;9.40;;;;;;;5.76;83.33;100349.97;106894;1253;70916;-68
2022/04/10 06:39:39;;;;;;;13.90;9.20;;;;;;;5.79;83.41;100348.56;107037;1250;71616;-68
2022/04/10 06:42:09;;;;;;;12.60;9.20;;;;;;;5.80;83.02;100344.52;107133;1251;69100;-68
2022/04/10 06:45:03;;;;;;;;;;;;;;;5.73;83.42;100355.33;107131;1250;71047;-67
2022/04/10 06:48:14;;;;;;;13.40;8.90;;;;;;;5.64;83.27;100346.33;107025;1253;62836;-67
2022/04/10 06:50:47;;;;;;;11.50;8.40;;;;;;;5.57;83.94;100333.95;106898;1251;59267;-66
2022/04/10 06:53:20;;;;;;;15.20;10.90;;;;;;;5.52;84.42;100335.77;106932;1253;73349;-65
2022/04/10 06:55:50;;;;;;;13.80;10.20;;;;;;;5.53;84.22;100342.80;107102;1251;73373;-67
2022/04/10 06:58:22;;;;;;;15.10;11.70;;;;;;;5.48;84.54;100341.70;107103;1253;71297;-67
2022/04/10 07:00:52;;;;;;;;;;;;;;;5.34;84.95;100333.02;107226;1251;72510;-66
2022/04/10 07:03:22;;;;;;;16.40;11.20;;;;;;;5.39;84.84;100347.08;107155;1251;61667;-69
2022/04/10 07:05:51;;;;;;;15.30;11.60;;;;;;;5.30;84.60;100352.70;107167;1253;60371;-69
2022/04/10 07:08:26;;;;;;;15.60;11.30;;;;;;;5.26;85.38;100354.69;106986;1253;72880;-68
2022/04/10 07:10:55;;;;;;;14.60;10.80;;;;;;;5.28;85.09;100373.91;107106;1253;72441;-70
2022/04/10 07:13:28;;;;;;;16.10;10.70;;;;;;;5.22;85.34;100382.38;107215;1251;69394;-68
2022/04/10 07:16:00;;;;;;;13.60;10.10;;;;;;;5.24;85.33;100396.94;107051;1252;74988;-70
2022/04/10 07:18:30;;;;;;;13.60;10.20;;;;;;;5.24;84.64;100401.29;107034;1253;60464;-70
2022/04/10 07:21:04;;;;;;;14.50;10.30;;;;;;;5.23;84.50;100397.32;107304;1253;58889;-69
2022/04/10 07:23:43;;;;;;;12.60;8.80;;;;;;;5.20;85.10;100384.89;107242;1251;70855;-70
2022/04/10 07:26:26;;;;;;;14.60;10.30;;;;;;;5.22;84.72;100380.48;107368;1253;70275;-70
2022/04/10 07:28:58;;;;;;;10.30;8.20;;;;;;;5.18;84.96;100377.26;107497;1251;66904;-66
2022/04/10 07:31:27;;;;;;;10.70;7.70;;;;;;;5.22;84.10;100388.21;107448;1250;72440;-70
2022/04/10 07:33:59;;;;;;;11.20;8.20;;;;;;;5.24;83.74;100390.57;107270;1250;62985;-79
2022/04/10 07:36:48;;;;;;;11.00;8.10;;;;;;;5.16;83.94;100394.45;107141;1251;61619;-71
2022/04/10 07:39:17;;;;;;;11.90;8.40;;;;;;;5.14;84.36;100394.92;107312;1250;73664;-71
2022/04/10 07:41:53;;;;;;;14.60;9.20;;;;;;;5.16;84.63;100394.41;107319;1250;72715;-69
2022/04/10 07:44:26;;;;;;;15.20;8.90;;;;;;;5.16;84.05;100394.64;107151;1250;69849;-71
2022/04/10 07:49:43;;;;;;;10.70;8.70;;;;;;;5.23;83.86;100403.39;107154;1250;60467;-67
2022/04/10 07:52:13;;;;;;;12.90;8.30;;;;;;;5.19;83.79;100416.20;107104;1250;60916;-68
2022/04/10 07:55:08;;;;;;;10.60;7.70;;;;;;;5.22;83.89;100422.79;107356;1250;71256;-70
2022/04/10 07:57:45;;;;;;;9.90;8.50;;;;;;;5.23;83.68;100431.38;107295;1250;72400;-69
2022/04/10 08:00:17;;;;;;;12.00;8.60;;;;;;;5.19;84.21;100432.59;107352;1250;68299;-75
2022/04/10 08:03:00;;;;;;;10.50;8.90;;;;;;;5.19;84.11;100424.11;107053;1250;73983;-73
2022/04/10 08:05:42;;;;;;;8.60;6.20;;;;;;;5.09;84.39;100418.33;107272;1250;61846;-75
2022/04/10 08:08:20;;;;;;;11.50;7.80;;;;;;;5.05;84.40;100434.77;107220;1250;59249;-73
2022/04/10 08:10:51;;;;;;;9.20;7.00;;;;;;;5.09;83.53;100464.23;107213;1249;73701;-69
2022/04/10 08:13:20;;;;;;;9.00;6.30;;;;;;;5.09;82.78;100471.13;107075;1250;69905;-67
2022/04/10 08:15:49;;;;;;;9.20;6.80;;;;;;;5.04;83.06;100466.55;107151;1250;68492;-70
2022/04/10 08:18:18;;;;;;;9.20;6.70;;;;;;;4.96;84.01;100473.52;107208;1250;73843;-69
2022/04/10 08:20:48;;;;;;;9.90;6.60;;;;;;;5.00;83.49;100468.85;107405;1250;60540;-70
2022/04/10 08:23:18;;;;;;;9.40;6.90;;;;;;;5.01;83.51;100469.13;107556;1250;60369;-73
2022/04/10 08:25:47;;;;;;;10.50;6.50;;;;;;;5.02;83.06;100467.88;107493;1250;72491;-71
2022/04/10 08:28:17;;;;;;;10.60;7.50;;;;;;;4.97;83.47;100455.05;107322;1250;71406;-70
2022/04/10 08:30:46;;;;;;;9.50;7.30;;;;;;;4.99;83.49;100450.91;107161;1250;70768;-69
2022/04/10 08:33:15;;;;;;;9.80;7.60;;;;;;;4.95;84.10;100454.95;107053;1250;74745;-73
2022/04/10 08:35:44;;;;;;;10.90;7.10;;;;;;;4.89;84.64;100451.29;107343;1250;62515;-71
2022/04/10 08:38:12;;;;;;;11.00;7.80;;;;;;;4.94;84.61;100450.33;107252;1250;61877;-67
2022/04/10 08:40:43;;;;;;;9.40;6.90;;;;;;;4.90;84.50;100449.86;107276;1250;73815;-72
2022/04/10 08:43:13;;;;;;;9.80;7.30;;;;;;;4.87;85.47;100453.16;107278;1250;73151;-68
2022/04/10 08:45:44;;;;;;;8.30;5.80;;;;;;;4.92;84.25;100449.09;107262;1250;70265;-72
2022/04/10 08:48:14;;;;;;;10.10;7.40;;;;;;;4.98;84.05;100455.10;107208;1250;74446;-69
2022/04/10 08:50:43;;;;;;;10.70;6.60;;;;;;;5.03;84.12;100456.05;107081;1250;60999;-69
2022/04/10 08:53:14;;;;;;;9.60;7.00;;;;;;;4.99;84.09;100460.28;107032;1253;60879;-69
2022/04/10 08:55:43;;;;;;;8.00;6.50;;;;;;;5.01;84.33;100467.23;107076;1252;69130;-68
2022/04/10 08:58:12;;;;;;;7.90;5.60;;;;;;;5.10;84.06;100466.07;107133;1250;69850;-68
2022/04/10 09:00:43;;;;;;;7.50;5.60;;;;;;;5.16;83.55;100459.00;107435;1250;67899;-76
2022/04/10 09:03:12;;;;;;;9.60;6.40;;;;;;;5.17;83.94;100463.63;107142;1250;74413;-70
2022/04/10 09:05:41;;;;;;;9.30;5.70;;;;;;;5.19;83.58;100471.09;107284;1250;60888;-71
2022/04/10 09:08:21;;;;;;;7.40;6.00;;;;;;;5.18;84.20;100468.42;107580;1250;60030;-70
2022/04/10 09:11:05;;;;;;;7.50;5.80;;;;;;;5.22;83.57;100459.54;107302;1250;71221;-73
2022/04/10 09:13:40;;;;;;;7.40;5.90;;;;;;;5.22;83.56;100465.10;107718;1250;70364;-73
2022/04/10 09:16:15;;;;;;;8.60;6.60;;;;;;;5.20;84.41;100474.70;107325;1250;68737;-72
2022/04/10 09:19:08;;;;;;;8.30;6.40;;;;;;;5.31;84.34;100468.76;107217;1250;72239;-72
2022/04/10 09:21:39;;;;;;;9.00;7.10;;;;;;;5.30;83.99;100460.67;107135;1251;62876;-69
2022/04/10 09:24:11;;;;;;;9.60;7.80;;;;;;;5.33;84.22;100467.40;107158;1250;60465;-68
2022/04/10 09:26:50;;;;;;;9.10;6.80;;;;;;;5.20;84.62;100463.47;107109;1250;72145;-68
2022/04/10 09:29:21;;;;;;;8.60;6.70;;;;;;;5.23;84.32;100461.75;107372;1250;70074;-67
2022/04/10 09:31:54;;;;;;;9.90;7.40;;;;;;;5.24;84.91;100462.20;107349;1251;69393;-67
2022/04/10 09:34:30;;;;;;;6.90;5.80;;;;;;;5.33;84.39;100465.01;107244;1251;72244;-68
2022/04/10 09:37:19;;;;;;;7.80;6.60;;;;;;;5.22;85.01;100459.17;107290;1250;61336;-66
2022/04/10 09:39:53;;;;;;;8.20;6.10;;;;;;;5.34;85.04;100458.55;107202;1250;61773;-68
2022/04/10 09:42:32;;;;;;;6.70;5.30;;;;;;;5.47;84.53;100455.44;107057;1251;72455;-70
2022/04/10 09:45:35;;;;;;;7.60;6.10;;;;;;;5.53;83.51;100461.66;107190;1250;70648;-71
2022/04/10 09:48:19;;;;;;;8.40;6.30;;;;;;;5.54;83.89;100460.39;107321;1250;70512;-72
2022/04/10 09:50:56;;;;;;;7.10;5.20;;;;;;;5.54;83.44;100462.11;107357;1250;74175;-66
2022/04/10 09:53:27;;;;;;;6.60;5.20;;;;;;;5.48;83.93;100461.25;107321;1250;62557;-67
2022/04/10 09:56:00;;;;;;;6.20;4.80;;;;;;;5.45;84.00;100459.99;107375;1250;63161;-70
2022/04/10 09:58:31;;;;;;;7.10;5.90;;;;;;;5.58;83.51;100466.55;107424;1250;72453;-72
2022/04/10 10:01:03;;;;;;;7.90;5.90;;;;;;;5.52;83.26;100472.41;107212;1251;71775;-68
2022/04/10 10:03:41;;;;;;;9.10;6.30;;;;;;;5.42;83.41;100469.20;107157;1253;68885;-71
2022/04/10 10:06:12;;;;;;;7.40;5.90;;;;;;;5.34;84.49;100478.23;107059;1253;74328;-70
2022/04/10 10:08:49;;;;;;;8.30;6.20;;;;;;;5.41;84.68;100469.22;107246;1251;62529;-76
2022/04/10 10:11:19;;;;;;;7.40;5.70;;;;;;;5.50;84.03;100461.48;107412;1251;61556;-73
2022/04/10 10:13:51;;;;;;;6.00;4.40;;;;;;;5.48;83.29;100465.38;107446;1252;70254;-70
2022/04/10 10:16:21;;;;;;;5.00;4.40;;;;;;;5.41;83.58;100459.02;107541;1251;72351;-69
2022/04/10 10:18:50;;;;;;;6.30;4.50;;;;;;;5.25;84.65;100457.32;107561;1250;71654;-69
2022/04/10 10:21:20;;;;;;;7.00;5.70;;;;;;;5.39;84.16;100453.77;107138;1251;74365;-72
2022/04/10 10:23:54;;;;;;;7.90;5.40;;;;;;;5.43;84.37;100455.48;107095;1254;64661;-70
2022/04/10 10:27:16;;;;;;;;;;;;;;;5.48;84.41;100455.16;107082;1253;59294;-68
2022/04/10 10:30:06;;;;;;;4.00;3.30;;;;;;;5.44;83.64;100452.48;106627;1259;72886;-70
2022/04/10 10:32:58;;;;;;;6.60;3.70;;;;;;;5.47;82.58;100448.34;106546;1260;73627;-69
2022/04/10 10:35:40;;;;;;;6.20;3.80;;;;;;;5.35;83.26;100447.63;106994;1251;70160;-69
2022/04/10 10:38:24;;;;;;;4.80;3.90;;;;;;;5.43;83.19;100441.60;107102;1254;74533;-70
2022/04/10 10:41:09;;;;;;;5.10;3.70;;;;;;;5.47;83.30;100450.06;107093;1253;61422;-69
2022/04/10 10:43:39;;;;;;;6.50;4.20;;;;;;;5.44;82.52;100440.58;107394;1250;59039;-71
2022/04/10 10:46:26;;;;;;;5.90;3.70;;;;;;;5.44;83.28;100441.23;106964;1250;72564;-70
2022/04/10 10:49:19;;;;;;;4.70;3.30;;;;;;;5.51;82.01;100444.13;107028;1251;72921;-69
2022/04/10 10:51:53;;;;;;;4.90;3.80;;;;;;;5.46;82.52;100451.16;106873;1253;69333;-70
2022/04/10 10:54:42;;;;;;;4.80;3.80;;;;;;;5.39;82.72;100455.69;106837;1253;72249;-70
2022/04/10 10:57:40;;;;;;;4.90;3.90;;;;;;;5.22;83.17;100454.02;107029;1252;61277;-70
2022/04/10 11:00:19;;;;;;;5.50;3.70;;;;;;;5.34;82.24;100452.65;107293;1250;59734;-70
2022/04/10 11:02:55;;;;;;;6.70;4.00;;;;;;;5.38;82.06;100458.70;107145;1251;72862;-71
2022/04/10 11:05:34;;;;;;;4.70;3.70;;;;;;;5.23;82.34;100466.05;106998;1250;70069;-71
2022/04/10 11:08:16;;;;;;;4.90;4.40;;;;;;;5.19;82.13;100468.66;107223;1250;69795;-73
2022/04/10 11:11:03;;;;;;;4.70;4.00;;;;;;;5.08;82.11;100466.35;107212;1251;73451;-74
2022/04/10 11:13:42;;;;;;;4.50;3.90;;;;;;;5.13;81.71;100463.30;107258;1253;59483;-77
2022/04/10 11:16:14;;;;;;;5.50;4.70;;;;;;;5.12;82.25;100469.74;107349;1251;61114;-75
2022/04/10 11:18:56;;;;;;;7.20;4.80;;;;;;;5.15;82.72;100475.14;106961;1253;72253;-73
2022/04/10 11:21:27;;;;;;;5.80;4.40;;;;;;;5.20;82.46;100471.03;107121;1250;70698;-73
2022/04/10 11:23:57;;;;;;;5.80;4.60;;;;;;;5.25;82.43;100457.14;107211;1251;70917;-74
2022/04/10 11:26:36;;;;;;;4.50;3.70;;;;;;;5.18;82.38;100460.65;106893;1251;73701;-72
2022/04/10 11:29:08;;;;;;;6.70;4.80;;;;;;;5.15;82.00;100463.58;106779;1250;62279;-72
2022/04/10 11:31:47;;;;;;;7.70;5.20;;;;;;;5.09;82.56;100472.34;106921;1251;61357;-72
2022/04/10 11:34:28;;;;;;;5.60;4.20;;;;;;;4.95;82.73;100470.16;107137;1251;72793;-73
2022/04/10 11:37:01;;;;;;;5.80;4.80;;;;;;;5.01;82.58;100478.43;107267;1253;70130;-71
2022/04/10 11:39:35;;;;;;;9.60;6.20;;;;;;;4.99;82.97;100487.19;107295;1250;71509;-71
2022/04/10 11:42:07;;;;;;;7.50;5.60;;;;;;;4.89;83.48;100491.48;107178;1252;73867;-72
2022/04/10 11:44:36;;;;;;;8.30;5.60;;;;;;;4.95;83.22;100489.44;106990;1253;58953;-73
2022/04/10 11:47:08;;;;;;;7.40;4.30;;;;;;;4.94;83.19;100499.38;107228;1250;58915;-72
2022/04/10 11:49:38;;;;;;;6.80;3.90;;;;;;;4.81;83.43;100501.06;107407;1251;74574;-72
2022/04/10 11:52:07;;;;;;;6.60;5.30;;;;;;;4.73;84.44;100508.23;107548;1250;70424;-70
2022/04/10 11:54:38;;;;;;;5.50;4.60;;;;;;;4.80;83.87;100502.66;107508;1251;70946;-73
2022/04/10 11:57:09;;;;;;;4.40;3.60;;;;;;;4.79;83.32;100512.89;107216;1251;74469;-73
2022/04/10 11:59:42;;;;;;;7.30;4.70;;;;;;;4.76;82.61;100509.64;107407;1253;62429;-73
2022/04/10 12:02:14;;;;;;;9.10;5.90;;;;;;;4.60;83.29;100512.83;107447;1250;60886;-72
2022/04/10 12:04:50;;;;;;;5.80;4.70;;;;;;;4.59;83.73;100523.44;107039;1253;71879;-75
2022/04/10 12:07:21;;;;;;;8.10;5.40;;;;;;;4.47;83.23;100529.00;106921;1254;71451;-74
2022/04/10 12:09:54;;;;;;;6.80;5.20;;;;;;;4.46;83.45;100519.59;107241;1252;70195;-72
2022/04/10 12:12:38;;;;;;;7.20;4.60;;;;;;;4.36;84.05;100522.50;106974;1251;76111;-74
2022/04/10 12:15:19;;;;;;;5.60;4.20;;;;;;;4.20;83.92;100511.02;107325;1251;63095;-74
2022/04/10 12:18:02;;;;;;;7.00;4.90;;;;;;;4.27;84.13;100524.15;107308;1254;60660;-70
2022/04/10 12:20:43;;;;;;;6.40;4.90;;;;;;;4.21;84.74;100519.27;107075;1250;73559;-72
2022/04/10 12:23:25;;;;;;;5.50;3.90;;;;;;;4.15;85.40;100520.07;107231;1253;69926;-72
2022/04/10 12:25:57;;;;;;;5.70;4.90;;;;;;;4.12;84.85;100514.70;107253;1250;72016;-72
2022/04/10 12:28:29;;;;;;;9.50;5.40;;;;;;;4.17;84.98;100519.46;107140;1253;72329;-70
2022/04/10 12:31:02;;;;;;;6.90;4.60;;;;;;;4.14;85.51;100516.02;107293;1250;62490;-69
2022/04/10 12:33:33;;;;;;;7.80;5.70;;;;;;;4.13;85.15;100519.49;107249;1250;59604;-70
2022/04/10 12:36:25;;;;;;;7.30;5.40;;;;;;;4.15;85.45;100514.54;106947;1253;74188;-69
2022/04/10 12:39:03;;;;;;;6.10;4.40;;;;;;;4.16;85.31;100514.52;107085;1252;72687;-66
2022/04/10 12:41:32;;;;;;;8.10;5.40;;;;;;;4.16;84.94;100518.14;107317;1250;69068;-70
2022/04/10 12:44:06;;;;;;;;;;;;;;;4.09;85.43;100512.98;107240;1250;72310;-70
2022/04/10 12:46:37;;;;;;;7.30;5.10;;;;;;;4.10;85.50;100513.77;107271;1250;59650;-70
2022/04/10 12:49:13;;;;;;;9.20;6.00;;;;;;;4.11;85.57;100514.77;107247;1250;61229;-69
2022/04/10 12:51:55;;;;;;;8.00;5.90;;;;;;;4.06;86.06;100518.66;107147;1253;73554;-70
2022/04/10 12:54:44;;;;;;;8.40;5.80;;;;;;;4.08;86.44;100511.98;107280;1251;72181;-69
2022/04/10 12:57:25;;;;;;;8.50;5.00;;;;;;;4.03;85.74;100510.32;107288;1251;70335;-72
2022/04/10 12:59:55;;;;;;;9.40;5.90;;;;;;;4.02;86.11;100499.52;107255;1251;71981;-72
2022/04/10 13:02:30;;;;;;;7.00;4.20;;;;;;;4.02;86.28;100501.41;107229;1250;61001;-70
2022/04/10 13:05:09;;;;;;;7.00;5.00;;;;;;;4.06;86.19;100499.86;107099;1251;61672;-73
2022/04/10 13:07:58;;;;;;;9.80;6.50;;;;;;;4.03;86.25;100500.15;107569;1252;72386;-74
2022/04/10 13:10:29;;;;;;;7.60;5.70;;;;;;;4.01;86.78;100486.30;107674;1251;71657;-71
2022/04/10 13:13:08;;;;;;;12.30;7.80;;;;;;;4.09;87.10;100499.02;107382;1251;70588;-73
2022/04/10 13:15:38;;;;;;;15.00;9.20;;;;;;;4.12;87.33;100493.70;107096;1251;71544;-71
2022/04/10 13:18:08;;;;;;;14.90;9.30;;;;;;;4.09;87.42;100494.34;107406;1250;62152;-69
2022/04/10 13:20:39;;;;;;;11.10;7.50;;;;;;;4.16;87.84;100489.33;107491;1251;61697;-71
2022/04/10 13:23:09;;;;;;;19.20;11.20;;;;;;;4.15;87.53;100495.06;107348;1251;71399;-71
2022/04/10 13:25:38;;;;;;;17.50;11.40;;;;;;;4.17;87.75;100495.34;107255;1253;72238;-72
2022/04/10 13:28:07;;;;;;;17.40;10.90;;;;;;;4.10;87.53;100490.84;107262;1252;69840;-73
2022/04/10 13:30:42;;;;;;;17.60;9.90;;;;;;;4.02;87.67;100488.30;107286;1253;71074;-72
2022/04/10 13:33:11;;;;;;;17.70;10.60;;;;;;;3.99;87.94;100486.91;107200;1251;60628;-73
2022/04/10 13:35:42;;;;;;;27.20;16.10;;;;;;;3.90;87.91;100483.90;107220;1251;59772;-71
2022/04/10 13:38:11;;;;;;;18.30;11.10;;;;;;;3.89;88.06;100491.20;107258;1251;73980;-70
2022/04/10 13:40:40;;;;;;;22.10;13.10;;;;;;;3.93;88.47;100486.67;107346;1251;71110;-70
2022/04/10 13:43:09;;;;;;;21.80;11.80;;;;;;;3.90;88.88;100492.17;107251;1253;68502;-70
2022/04/10 13:45:38;;;;;;;20.60;11.70;;;;;;;3.87;88.56;100493.14;107213;1251;72323;-72
2022/04/10 13:48:07;;;;;;;25.70;12.70;;;;;;;3.85;89.08;100498.80;107190;1251;59582;-70
2022/04/10 13:50:36;;;;;;;12.70;7.50;;;;;;;3.83;88.86;100494.74;107201;1251;59098;-72
2022/04/10 13:53:05;;;;;;;25.50;13.00;;;;;;;3.77;88.74;100495.89;107167;1251;73273;-72
2022/04/10 13:55:34;;;;;;;18.70;12.30;;;;;;;3.75;88.45;100495.65;107079;1252;73075;-69
2022/04/10 13:58:03;;;;;;;20.00;12.50;;;;;;;3.72;88.22;100498.86;107209;1251;68182;-72
2022/04/10 14:00:33;;;;;;;17.20;8.70;;;;;;;3.75;88.44;100509.09;107137;1251;72929;-71
2022/04/10 14:03:04;;;;;;;17.00;10.30;;;;;;;3.74;88.31;100512.90;107218;1251;59752;-75
2022/04/10 14:05:33;;;;;;;13.40;9.20;;;;;;;3.70;87.94;100517.59;107158;1251;58974;-70
2022/04/10 14:08:03;;;;;;;20.00;12.30;;;;;;;3.65;88.12;100526.06;107164;1251;73616;-72
2022/04/10 14:10:32;;;;;;;24.00;13.50;;;;;;;3.69;89.19;100528.47;107084;1251;70895;-71
2022/04/10 14:13:02;;;;;;;30.40;16.30;;;;;;;3.69;89.87;100534.48;107311;1251;69068;-68
2022/04/10 14:15:31;;;;;;;24.60;15.50;;;;;;;3.67;89.34;100536.14;107283;1251;73043;-74
2022/04/10 14:18:00;;;;;;;26.80;13.80;;;;;;;3.74;89.97;100538.89;107559;1251;61747;-70
2022/04/10 14:20:32;;;;;;;22.20;12.50;;;;;;;3.70;89.11;100542.57;107033;1252;59346;-70
2022/04/10 14:23:02;;;;;;;25.20;13.70;;;;;;;3.70;89.48;100547.02;106928;1254;70899;-70
2022/04/10 14:25:31;;;;;;;27.60;14.90;;;;;;;3.67;88.96;100552.88;107442;1251;71599;-71
2022/04/10 14:28:00;;;;;;;24.50;13.70;;;;;;;3.67;88.68;100559.94;107529;1251;70265;-70
2022/04/10 14:30:29;;;;;;;19.60;11.40;;;;;;;3.66;89.03;100564.95;107485;1251;73507;-72
2022/04/10 14:32:58;;;;;;;28.00;15.10;;;;;;;3.65;89.28;100568.27;107523;1251;61742;-72
2022/04/10 14:35:27;;;;;;;24.10;14.70;;;;;;;3.59;88.67;100572.15;107413;1251;60805;-70
2022/04/10 14:37:56;;;;;;;27.80;14.50;;;;;;;3.64;89.12;100571.95;107184;1251;75247;-69
2022/04/10 14:40:25;;;;;;;17.10;10.30;;;;;;;3.65;89.50;100568.12;107455;1251;69967;-69
2022/04/10 14:42:54;;;;;;;15.30;9.00;;;;;;;3.64;89.17;100569.37;108868;1251;68013;-70
2022/04/10 14:45:24;;;;;;;24.90;14.70;;;;;;;3.62;88.92;100568.77;107418;1251;74790;-70
2022/04/10 14:47:53;;;;;;;29.10;15.50;;;;;;;3.63;89.36;100566.27;107445;1251;63136;-71
2022/04/10 14:50:22;;;;;;;30.90;16.70;;;;;;;3.68;90.07;100566.25;107358;1251;59308;-69
2022/04/10 14:52:52;;;;;;;26.60;15.30;;;;;;;3.65;89.83;100563.80;107368;1251;73569;-68
2022/04/10 14:55:22;;;;;;;28.60;18.10;;;;;;;3.64;89.90;100560.73;107307;1251;72858;-68
2022/04/10 14:57:51;;;;;;;36.00;17.60;;;;;;;3.60;89.84;100562.81;107129;1251;71308;-69
2022/04/10 15:00:21;;;;;;;32.90;18.80;;;;;;;3.67;90.66;100557.48;107267;1251;75576;-69
2022/04/10 15:02:50;;;;;;;33.20;18.10;;;;;;;3.62;90.09;100557.23;107260;1251;62510;-69
2022/04/10 15:05:20;;;;;;;40.10;21.30;;;;;;;3.65;89.82;100552.95;107391;1251;60471;-69
2022/04/10 15:07:50;;;;;;;32.10;19.30;;;;;;;3.67;89.96;100554.55;107263;1251;74443;-68
2022/04/10 15:10:19;;;;;;;38.50;20.50;;;;;;;3.70;90.11;100552.72;107344;1250;69573;-68
2022/04/10 15:12:49;;;;;;;37.90;19.70;;;;;;;3.71;90.43;100551.78;107347;1251;70602;-68
2022/04/10 15:15:18;;;;;;;35.10;20.60;;;;;;;3.78;90.74;100551.13;107208;1251;74707;-68
2022/04/10 15:17:47;;;;;;;37.40;19.60;;;;;;;3.72;90.47;100550.73;107294;1251;61603;-67
2022/04/10 15:20:16;;;;;;;39.20;16.90;;;;;;;3.74;90.96;100549.42;107171;1251;61078;-67
2022/04/10 15:22:45;;;;;;;37.90;19.80;;;;;;;3.73;91.43;100549.28;107343;1251;70869;-69
2022/04/10 15:25:14;;;;;;;28.30;14.90;;;;;;;3.71;91.06;100553.02;107467;1251;72418;-70
2022/04/10 15:27:44;;;;;;;32.50;17.70;;;;;;;3.66;90.33;100551.89;107583;1248;70213;-70
2022/04/10 15:30:13;;;;;;;36.10;15.10;;;;;;;3.65;90.46;100550.36;107227;1253;74483;-69
2022/04/10 15:32:45;;;;;;;31.70;16.10;;;;;;;3.73;90.96;100551.38;107183;1253;61779;-66
2022/04/10 15:35:17;;;;;;;37.00;17.60;;;;;;;3.66;90.41;100557.19;107013;1254;58818;-66
2022/04/10 15:37:46;;;;;;;37.70;20.00;;;;;;;3.74;91.26;100559.59;106995;1254;72261;-68
2022/04/10 15:40:15;;;;;;;38.00;19.50;;;;;;;3.73;91.55;100561.88;107005;1253;70794;-68
2022/04/10 15:42:44;;;;;;;38.00;20.70;;;;;;;3.75;91.61;100566.27;107029;1254;69727;-68
2022/04/10 15:45:13;;;;;;;38.40;21.40;;;;;;;3.81;92.10;100567.20;106956;1254;74710;-66
2022/04/10 15:47:42;;;;;;;45.10;21.70;;;;;;;3.79;91.96;100567.10;107014;1254;62554;-66
2022/04/10 15:50:12;;;;;;;38.50;21.80;;;;;;;3.82;92.24;100559.72;106972;1253;59984;-66
2022/04/10 15:52:41;;;;;;;45.30;22.60;;;;;;;3.82;92.16;100565.42;107058;1253;76497;-68
2022/04/10 15:55:21;;;;;;;38.30;22.20;;;;;;;3.91;92.24;100567.05;107054;1254;71852;-69
2022/04/10 15:57:51;;;;;;;40.40;20.30;;;;;;;3.84;91.59;100567.20;107078;1253;69068;-72
2022/04/10 16:00:21;;;;;;;40.20;21.80;;;;;;;3.88;91.93;100567.04;107026;1254;74413;-71
2022/04/10 16:02:50;;;;;;;39.80;19.50;;;;;;;3.87;91.87;100569.66;106911;1254;62671;-69
2022/04/10 16:05:23;;;;;;;32.90;17.10;;;;;;;3.90;91.80;100574.02;107683;1254;61747;-71
2022/04/10 16:07:52;;;;;;;;;;;;;;;3.80;90.45;100578.27;107192;1252;72722;-70
2022/04/10 16:10:25;;;;;;;31.50;19.50;;;;;;;3.81;91.15;100574.06;107009;1254;72738;-71
2022/04/10 16:12:54;;;;;;;36.00;19.70;;;;;;;3.80;90.59;100579.46;106960;1254;67274;-69
2022/04/10 16:15:23;;;;;;;41.00;21.10;;;;;;;3.83;91.69;100573.33;107213;1252;71989;-69
2022/04/10 16:17:53;;;;;;;40.00;21.50;;;;;;;3.80;92.15;100579.31;107062;1252;60341;-68
2022/04/10 16:20:22;;;;;;;36.80;16.20;;;;;;;3.79;92.07;100579.15;107056;1253;60099;-71
2022/04/10 16:22:51;;;;;;;31.90;17.40;;;;;;;3.78;91.73;100575.27;107089;1254;70431;-73
2022/04/10 16:25:20;;;;;;;37.00;21.70;;;;;;;3.75;91.32;100584.18;107327;1254;70316;-70
2022/04/10 16:30:37;;;;;;;37.00;21.50;;;;;;;3.75;90.68;100591.92;107038;1254;74335;-74
2022/04/10 16:33:07;;;;;;;48.70;22.80;;;;;;;3.78;91.07;100593.84;107043;1254;62065;-71
2022/04/10 16:35:42;;;;;;;38.50;22.00;;;;;;;3.80;91.32;100593.93;106982;1254;59922;-69
2022/04/10 16:38:13;;;;;;;42.20;24.20;;;;;;;3.79;91.38;100594.67;107069;1254;71241;-67
2022/04/10 16:40:43;;;;;;;43.00;22.70;;;;;;;3.86;91.72;100589.19;107152;1254;72213;-66
2022/04/10 16:43:13;;;;;;;41.60;22.90;;;;;;;3.87;91.97;100587.56;107212;1254;70131;-68
2022/04/10 16:45:44;;;;;;;42.80;24.50;;;;;;;3.82;91.53;100594.36;107209;1254;71154;-67
2022/04/10 16:48:13;;;;;;;41.60;19.80;;;;;;;3.88;92.01;100595.80;107028;1254;60138;-73
2022/04/10 16:50:43;;;;;;;33.00;21.20;;;;;;;3.84;91.23;100598.59;107192;1253;60863;-70
2022/04/10 16:53:12;;;;;;;43.70;23.00;;;;;;;3.88;91.25;100594.60;107233;1254;73144;-67
2022/04/10 16:55:41;;;;;;;40.00;22.60;;;;;;;3.91;91.32;100600.49;107138;1252;70185;-65
2022/04/10 16:58:10;;;;;;;35.50;22.80;;;;;;;3.98;92.33;100592.91;107069;1253;66996;-71
2022/04/10 17:00:39;;;;;;;40.60;23.70;;;;;;;3.99;91.78;100591.83;107178;1254;71714;-69
2022/04/10 17:03:12;;;;;;;43.40;24.90;;;;;;;3.99;91.53;100595.81;107037;1254;60456;-68
2022/04/10 17:05:42;;;;;;;53.90;26.40;;;;;;;4.01;91.67;100599.31;107243;1254;61258;-71
2022/04/10 17:08:10;;;;;;;45.50;26.70;;;;;;;4.03;91.48;100599.24;106928;1254;73588;-70
2022/04/10 17:10:39;;;;;;;42.90;25.40;;;;;;;4.12;91.91;100602.63;107126;1254;70399;-71
2022/04/10 17:13:08;;;;;;;36.90;23.90;;;;;;;4.04;91.32;100596.95;107196;1254;70071;-71
2022/04/10 17:15:38;;;;;;;44.20;23.60;;;;;;;4.03;91.04;100596.17;107231;1254;73727;-70
2022/04/10 17:18:07;;;;;;;43.70;24.70;;;;;;;4.12;91.82;100602.64;107266;1253;62581;-72
2022/04/10 17:20:40;;;;;;;40.20;24.20;;;;;;;4.06;91.82;100612.20;107104;1252;60865;-71
2022/04/10 17:23:11;;;;;;;40.50;25.40;;;;;;;4.04;91.36;100610.93;107219;1253;74464;-71
2022/04/10 17:25:40;;;;;;;41.50;24.30;;;;;;;4.01;90.78;100620.89;107192;1254;72719;-71
2022/04/10 17:28:10;;;;;;;44.70;25.70;;;;;;;4.00;90.88;100619.54;107035;1253;70098;-70
2022/04/10 17:30:39;;;;;;;42.60;23.90;;;;;;;4.10;92.15;100617.34;107216;1253;73605;-71
2022/04/10 17:33:08;;;;;;;44.00;25.80;;;;;;;4.11;92.40;100624.89;107127;1253;61109;-72
2022/04/10 17:35:37;;;;;;;47.80;26.70;;;;;;;4.01;92.27;100624.48;106949;1254;59781;-72
2022/04/10 17:38:07;;;;;;;46.30;27.20;;;;;;;4.04;92.22;100626.95;107224;1254;74567;-71
2022/04/10 17:40:36;;;;;;;44.70;25.00;;;;;;;4.03;91.57;100633.18;107034;1254;72992;-71
2022/04/10 17:43:05;;;;;;;41.00;24.20;;;;;;;4.11;92.47;100640.08;107060;1254;70604;-71
2022/04/10 17:45:34;;;;;;;43.80;24.20;;;;;;;3.97;90.96;100642.91;107248;1254;71175;-70
2022/04/10 17:48:04;;;;;;;45.50;25.30;;;;;;;3.96;90.83;100648.14;107021;1254;59640;-70
2022/04/10 17:50:33;;;;;;;43.80;27.20;;;;;;;3.99;91.74;100644.23;107028;1254;58906;-71